createdAt,value
2019-02-28T00:02:08.889Z,6.60
2019-02-28T00:04:39.308Z,6.60
2019-02-28T00:07:09.763Z,6.60
2019-02-28T00:09:39.981Z,6.50
2019-02-28T00:12:13.634Z,6.50
2019-02-28T00:14:42.569Z,6.50
2019-02-28T00:17:12.836Z,6.50
2019-02-28T00:19:43.057Z,6.50
2019-02-28T00:22:14.690Z,6.40
2019-02-28T00:24:45.350Z,6.40
2019-02-28T00:27:20.997Z,6.40
2019-02-28T00:29:47.713Z,6.40
2019-02-28T00:32:18.004Z,6.40
2019-02-28T00:34:48.390Z,6.40
2019-02-28T00:37:18.657Z,6.40
2019-02-28T00:39:48.936Z,6.30
2019-02-28T00:42:19.338Z,6.30
2019-02-28T00:44:49.781Z,6.30
2019-02-28T00:47:20.070Z,6.30
2019-02-28T00:49:50.346Z,6.30
2019-02-28T00:52:20.568Z,6.30
2019-02-28T00:54:50.693Z,6.30
2019-02-28T00:57:23.612Z,6.30
2019-02-28T00:59:52.881Z,6.30
2019-02-28T01:02:23.361Z,6.30
2019-02-28T01:04:53.781Z,6.30
2019-02-28T01:07:24.140Z,6.30
2019-02-28T01:09:54.478Z,6.30
2019-02-28T01:12:24.771Z,6.30
2019-02-28T01:14:55.069Z,6.20
2019-02-28T01:17:26.734Z,6.20
2019-02-28T01:19:57.846Z,6.20
2019-02-28T01:22:28.288Z,6.20
2019-02-28T01:24:58.593Z,6.20
2019-02-28T01:27:28.924Z,6.20
2019-02-28T01:29:59.139Z,6.20
2019-02-28T01:32:29.343Z,6.20
2019-02-28T01:34:59.625Z,6.10
2019-02-28T01:37:29.901Z,6.20
2019-02-28T01:40:01.132Z,6.20
2019-02-28T01:42:32.339Z,6.20
2019-02-28T01:45:02.749Z,6.20
2019-02-28T01:47:32.969Z,6.10
2019-02-28T01:50:04.220Z,6.10
2019-02-28T01:52:34.493Z,6.10
2019-02-28T01:55:05.857Z,6.10
2019-02-28T01:57:36.291Z,6.10
2019-02-28T02:00:09.729Z,6.10
2019-02-28T02:02:40.369Z,6.10
2019-02-28T02:05:10.781Z,6.10
2019-02-28T02:07:41.306Z,6.10
2019-02-28T02:10:17.548Z,6.10
2019-02-28T02:12:47.219Z,6.10
2019-02-28T02:15:17.943Z,6.00
2019-02-28T02:17:48.353Z,6.10
2019-02-28T02:20:18.771Z,6.10
2019-02-28T02:22:49.091Z,6.10
2019-02-28T02:25:19.515Z,6.10
2019-02-28T02:27:52.816Z,6.00
2019-02-28T02:30:23.838Z,6.00
2019-02-28T02:32:54.053Z,6.00
2019-02-28T02:35:24.417Z,6.00
2019-02-28T02:37:54.629Z,6.00
2019-02-28T02:40:24.926Z,6.00
2019-02-28T02:42:55.135Z,6.00
2019-02-28T02:45:25.418Z,5.90
2019-02-28T02:47:55.806Z,6.00
2019-02-28T02:50:33.906Z,5.90
2019-02-28T02:53:04.923Z,5.90
2019-02-28T02:55:30.568Z,5.90
2019-02-28T02:58:01.130Z,5.90
2019-02-28T03:00:31.594Z,5.90
2019-02-28T03:03:06.043Z,5.90
2019-02-28T03:05:35.663Z,5.80
2019-02-28T03:08:06.074Z,5.80
2019-02-28T03:10:36.501Z,5.80
2019-02-28T03:13:06.938Z,5.80
2019-02-28T03:15:37.299Z,5.80
2019-02-28T03:18:07.662Z,5.80
2019-02-28T03:20:41.370Z,5.80
2019-02-28T03:23:10.020Z,5.80
2019-02-28T03:25:40.717Z,5.90
2019-02-28T03:28:13.755Z,5.90
2019-02-28T03:30:43.096Z,5.80
2019-02-28T03:33:24.232Z,5.80
2019-02-28T03:35:45.552Z,5.80
2019-02-28T03:38:15.989Z,5.80
2019-02-28T03:40:46.165Z,5.80
2019-02-28T03:43:16.712Z,5.80
2019-02-28T03:45:47.074Z,5.80
2019-02-28T03:48:17.343Z,5.70
2019-02-28T03:50:48.098Z,5.70
2019-02-28T03:53:19.944Z,5.70
2019-02-28T03:55:50.706Z,5.70
2019-02-28T03:58:21.118Z,5.70
2019-02-28T04:00:51.528Z,5.70
2019-02-28T04:03:22.097Z,5.70
2019-02-28T04:05:52.480Z,5.60
2019-02-28T04:08:29.396Z,5.60
2019-02-28T04:10:55.762Z,5.60
2019-02-28T04:13:26.077Z,5.60
2019-02-28T04:16:08.658Z,5.60
2019-02-28T04:18:28.362Z,5.50
2019-02-28T04:20:58.812Z,5.50
2019-02-28T04:23:35.523Z,5.50
2019-02-28T04:26:00.926Z,5.60
2019-02-28T04:28:31.197Z,5.50
2019-02-28T04:31:01.497Z,5.50
2019-02-28T04:33:37.694Z,5.60
2019-02-28T04:36:03.922Z,5.50
2019-02-28T04:38:34.364Z,5.50
2019-02-28T04:41:04.581Z,5.50
2019-02-28T04:43:35.025Z,5.50
2019-02-28T04:46:05.757Z,5.50
2019-02-28T04:48:36.025Z,5.50
2019-02-28T04:51:06.616Z,5.40
2019-02-28T04:53:37.018Z,5.40
2019-02-28T04:56:11.160Z,5.40
2019-02-28T04:58:39.332Z,5.40
2019-02-28T05:01:12.356Z,5.40
2019-02-28T05:03:41.452Z,5.40
2019-02-28T05:06:11.870Z,5.40
2019-02-28T05:08:42.145Z,5.40
2019-02-28T05:11:12.374Z,5.40
2019-02-28T05:13:48.500Z,5.40
2019-02-28T05:16:14.421Z,5.30
2019-02-28T05:18:44.930Z,5.30
2019-02-28T05:21:16.581Z,5.30
2019-02-28T05:23:47.139Z,5.30
2019-02-28T05:26:17.492Z,5.40
2019-02-28T05:28:47.822Z,5.30
2019-02-28T05:31:18.289Z,5.30
2019-02-28T05:33:48.585Z,5.30
2019-02-28T05:36:18.937Z,5.30
2019-02-28T05:38:49.229Z,5.30
2019-02-28T05:41:19.521Z,5.30
2019-02-28T05:43:49.988Z,5.20
2019-02-28T05:46:23.660Z,5.30
2019-02-28T05:48:52.552Z,5.30
2019-02-28T05:51:24.930Z,5.20
2019-02-28T05:53:54.873Z,5.20
2019-02-28T05:56:25.352Z,5.20
2019-02-28T05:58:55.738Z,5.20
2019-02-28T06:01:26.780Z,5.20
2019-02-28T06:03:57.485Z,5.20
2019-02-28T06:06:27.796Z,5.10
2019-02-28T06:08:58.224Z,5.10
2019-02-28T06:11:34.404Z,5.10
2019-02-28T06:14:00.542Z,5.10
2019-02-28T06:16:30.922Z,5.10
2019-02-28T06:19:01.287Z,5.00
2019-02-28T06:21:31.814Z,5.00
2019-02-28T06:24:02.269Z,5.00
2019-02-28T06:26:33.021Z,5.00
2019-02-28T06:29:05.142Z,5.00
2019-02-28T06:31:35.521Z,5.00
2019-02-28T06:34:08.591Z,5.00
2019-02-28T06:36:37.990Z,5.00
2019-02-28T06:39:08.343Z,5.00
2019-02-28T06:41:39.983Z,5.00
2019-02-28T06:44:10.681Z,5.00
2019-02-28T06:46:41.280Z,5.00
2019-02-28T06:49:11.813Z,5.00
2019-02-28T06:51:42.278Z,5.00
2019-02-28T06:54:12.573Z,5.00
2019-02-28T06:56:42.885Z,5.10
2019-02-28T06:59:13.294Z,5.10
2019-02-28T07:01:43.733Z,5.10
2019-02-28T07:04:14.467Z,5.10
2019-02-28T07:06:45.672Z,5.20
2019-02-28T07:09:16.203Z,5.20
2019-02-28T07:11:46.589Z,5.20
2019-02-28T07:14:16.876Z,5.20
2019-02-28T07:16:47.232Z,5.30
2019-02-28T07:19:17.601Z,5.30
2019-02-28T07:21:47.977Z,5.30
2019-02-28T07:24:18.199Z,5.30
2019-02-28T07:26:52.286Z,5.40
2019-02-28T07:29:20.730Z,5.40
2019-02-28T07:31:51.061Z,5.40
2019-02-28T07:34:23.794Z,5.50
2019-02-28T07:36:53.580Z,5.40
2019-02-28T07:39:24.190Z,5.50
2019-02-28T07:41:54.565Z,5.50
2019-02-28T07:44:24.968Z,5.60
2019-02-28T07:46:55.504Z,5.60
2019-02-28T07:49:26.385Z,5.70
2019-02-28T07:51:57.221Z,5.70
2019-02-28T07:54:28.336Z,5.80
2019-02-28T07:56:58.779Z,5.90
2019-02-28T07:59:29.162Z,6.00
2019-02-28T08:01:59.906Z,6.10
2019-02-28T08:04:32.658Z,6.20
2019-02-28T08:07:03.109Z,6.20
2019-02-28T08:09:33.452Z,6.20
2019-02-28T08:12:03.857Z,6.30
2019-02-28T08:14:34.377Z,6.30
2019-02-28T08:17:05.512Z,6.30
2019-02-28T08:19:36.649Z,6.40
2019-02-28T08:22:07.045Z,6.40
2019-02-28T08:24:37.392Z,6.40
2019-02-28T08:27:07.737Z,6.40
2019-02-28T08:29:38.166Z,6.30
2019-02-28T08:32:08.601Z,6.40
2019-02-28T08:34:39.025Z,6.40
2019-02-28T08:37:11.101Z,6.40
2019-02-28T08:39:42.148Z,6.40
2019-02-28T08:42:12.457Z,6.40
2019-02-28T08:44:42.741Z,6.50
2019-02-28T08:47:13.213Z,6.50
2019-02-28T08:49:45.499Z,6.50
2019-02-28T08:52:15.354Z,6.60
2019-02-28T08:54:45.790Z,6.60
2019-02-28T08:57:16.096Z,6.70
2019-02-28T08:59:46.477Z,6.70
2019-02-28T09:02:18.133Z,6.70
2019-02-28T09:04:51.017Z,6.70
2019-02-28T09:07:21.097Z,6.80
2019-02-28T09:09:51.538Z,6.90
2019-02-28T09:12:21.934Z,6.90
2019-02-28T09:14:55.349Z,7.00
2019-02-28T09:17:24.221Z,7.10
2019-02-28T09:19:54.554Z,7.10
2019-02-28T09:22:27.356Z,7.20
2019-02-28T09:24:56.852Z,7.20
2019-02-28T09:27:27.146Z,7.30
2019-02-28T09:29:57.433Z,7.30
2019-02-28T09:32:27.825Z,7.30
2019-02-28T09:34:58.260Z,7.30
2019-02-28T09:37:29.804Z,7.30
2019-02-28T09:40:00.758Z,7.30
2019-02-28T09:42:31.029Z,7.30
2019-02-28T09:45:06.695Z,7.30
2019-02-28T09:47:33.449Z,7.30
2019-02-28T09:50:05.033Z,7.30
2019-02-28T09:52:41.209Z,7.40
2019-02-28T09:55:08.799Z,7.40
2019-02-28T09:57:39.255Z,7.40
2019-02-28T10:00:17.885Z,7.50
2019-02-28T10:02:48.261Z,7.40
2019-02-28T10:05:18.940Z,7.40
2019-02-28T10:07:49.674Z,7.40
2019-02-28T10:10:22.169Z,7.30
2019-02-28T10:12:52.616Z,7.30
2019-02-28T10:15:23.745Z,7.30
2019-02-28T10:17:54.283Z,7.20
2019-02-28T10:20:33.662Z,7.20
2019-02-28T10:23:05.108Z,7.20
2019-02-28T10:25:40.982Z,7.20
2019-02-28T10:28:07.841Z,7.10
2019-02-28T10:30:38.346Z,7.10
2019-02-28T10:33:08.847Z,7.10
2019-02-28T10:35:39.388Z,7.10
2019-02-28T10:38:09.776Z,7.20
2019-02-28T10:40:40.276Z,7.20
2019-02-28T10:43:12.148Z,7.10
2019-02-28T10:45:42.918Z,7.20
2019-02-28T10:48:13.345Z,7.20
2019-02-28T10:50:43.520Z,7.30
2019-02-28T10:53:14.085Z,7.40
2019-02-28T10:55:44.701Z,7.50
2019-02-28T10:58:15.610Z,7.60
2019-02-28T11:00:46.831Z,7.60
2019-02-28T11:03:17.469Z,7.60
2019-02-28T11:05:53.460Z,7.70
2019-02-28T11:08:19.901Z,7.70
2019-02-28T11:10:50.233Z,7.60
2019-02-28T11:13:21.710Z,7.60
2019-02-28T11:15:53.393Z,7.50
2019-02-28T11:18:23.929Z,7.40
2019-02-28T11:20:54.349Z,7.20
2019-02-28T11:23:24.800Z,7.10
2019-02-28T11:25:55.304Z,7.20
2019-02-28T11:28:28.241Z,7.40
2019-02-28T11:30:57.981Z,7.60
2019-02-28T11:33:28.461Z,7.80
2019-02-28T11:35:59.385Z,8.00
2019-02-28T11:38:29.973Z,8.20
2019-02-28T11:41:00.331Z,8.40
2019-02-28T11:43:34.622Z,8.70
2019-02-28T11:46:04.025Z,9.00
2019-02-28T11:48:34.448Z,9.20
2019-02-28T11:51:05.032Z,9.30
2019-02-28T11:53:39.270Z,9.50
2019-02-28T11:56:07.892Z,9.70
2019-02-28T11:58:38.439Z,9.90
2019-02-28T12:01:10.522Z,9.90
2019-02-28T12:03:41.160Z,9.80
2019-02-28T12:06:11.496Z,9.50
2019-02-28T12:08:45.024Z,9.10
2019-02-28T12:11:14.086Z,8.80
2019-02-28T12:13:44.746Z,8.60
2019-02-28T12:16:16.256Z,8.40
2019-02-28T12:18:47.236Z,8.30
2019-02-28T12:21:17.820Z,8.20
2019-02-28T12:23:48.376Z,8.20
2019-02-28T12:26:18.881Z,8.10
2019-02-28T12:28:49.187Z,8.00
2019-02-28T12:31:19.788Z,8.10
2019-02-28T12:33:53.464Z,8.10
2019-02-28T12:36:22.545Z,8.10
2019-02-28T12:38:53.193Z,8.00
2019-02-28T12:41:25.205Z,7.80
2019-02-28T12:43:55.972Z,7.70
2019-02-28T12:46:26.589Z,7.50
2019-02-28T12:48:57.159Z,7.50
2019-02-28T12:51:27.474Z,7.50
2019-02-28T12:53:59.169Z,7.30
2019-02-28T12:56:29.804Z,7.30
2019-02-28T12:59:00.231Z,7.50
2019-02-28T13:01:33.192Z,7.90
2019-02-28T13:04:02.824Z,8.30
2019-02-28T13:06:33.329Z,8.40
2019-02-28T13:09:04.837Z,8.60
2019-02-28T13:11:36.387Z,8.60
2019-02-28T13:14:06.986Z,8.30
2019-02-28T13:16:37.597Z,8.00
2019-02-28T13:19:08.628Z,8.00
2019-02-28T13:21:39.089Z,7.80
2019-02-28T13:24:10.629Z,7.60
2019-02-28T13:26:41.383Z,7.40
2019-02-28T13:29:12.313Z,7.50
2019-02-28T13:31:42.951Z,7.60
2019-02-28T13:34:13.453Z,7.70
2019-02-28T13:36:44.005Z,7.80
2019-02-28T13:39:14.828Z,8.00
2019-02-28T13:41:45.292Z,8.00
2019-02-28T13:44:15.813Z,8.00
2019-02-28T13:46:46.378Z,8.10
2019-02-28T13:49:16.969Z,8.20
2019-02-28T13:51:47.398Z,8.20
2019-02-28T13:54:17.889Z,8.20
2019-02-28T13:56:48.182Z,8.10
2019-02-28T13:59:18.741Z,8.10
2019-02-28T14:01:52.044Z,8.00
2019-02-28T14:04:25.804Z,8.20
2019-02-28T14:06:55.793Z,8.20
2019-02-28T14:09:25.385Z,8.30
2019-02-28T14:11:57.734Z,8.30
2019-02-28T14:14:28.030Z,8.30
2019-02-28T14:17:01.239Z,8.40
2019-02-28T14:19:30.607Z,8.40
2019-02-28T14:22:01.039Z,8.20
2019-02-28T14:24:32.017Z,8.30
2019-02-28T14:27:02.488Z,8.10
2019-02-28T14:29:32.844Z,8.00
2019-02-28T14:32:04.641Z,7.90
2019-02-28T14:34:35.545Z,7.80
2019-02-28T14:37:06.134Z,7.50
2019-02-28T14:39:39.728Z,7.40
2019-02-28T14:42:09.000Z,7.20
2019-02-28T14:44:39.514Z,7.10
2019-02-28T14:47:10.073Z,6.90
2019-02-28T14:49:43.902Z,6.70
2019-02-28T14:52:14.296Z,6.50
2019-02-28T14:54:44.885Z,6.10
2019-02-28T14:57:16.603Z,6.00
2019-02-28T14:59:47.618Z,5.90
2019-02-28T15:02:18.283Z,5.80
2019-02-28T15:04:48.756Z,5.70
2019-02-28T15:07:19.323Z,5.60
2019-02-28T15:09:49.705Z,5.60
2019-02-28T15:12:20.320Z,5.40
2019-02-28T15:14:52.370Z,5.40
2019-02-28T15:17:22.843Z,5.40
2019-02-28T15:19:53.210Z,5.30
2019-02-28T15:22:23.769Z,5.20
2019-02-28T15:24:54.214Z,5.20
2019-02-28T15:27:24.697Z,5.00
2019-02-28T15:29:55.540Z,4.90
2019-02-28T15:32:27.296Z,4.80
2019-02-28T15:34:57.753Z,4.70
2019-02-28T15:37:30.412Z,4.60
2019-02-28T15:40:00.266Z,4.50
2019-02-28T15:42:30.871Z,4.40
2019-02-28T15:45:03.928Z,4.40
2019-02-28T15:47:33.357Z,4.30
2019-02-28T15:50:05.841Z,4.30
2019-02-28T15:52:36.671Z,4.30
2019-02-28T15:55:09.506Z,4.20
2019-02-28T16:00:23.119Z,4.10
2019-02-28T16:02:54.072Z,4.10
2019-02-28T16:05:24.591Z,4.00
2019-02-28T16:07:56.046Z,4.00
2019-02-28T16:10:33.985Z,4.00
2019-02-28T16:13:07.037Z,4.00
2019-02-28T16:15:37.426Z,3.90
2019-02-28T16:18:08.734Z,3.90
2019-02-28T16:20:40.159Z,3.80
2019-02-28T16:23:10.601Z,3.80
2019-02-28T16:25:41.523Z,3.80
2019-02-28T16:28:11.905Z,3.70
2019-02-28T16:30:42.673Z,3.60
2019-02-28T16:33:13.052Z,3.50
2019-02-28T16:35:46.794Z,3.40
2019-02-28T16:38:15.561Z,3.40
2019-02-28T16:40:46.097Z,3.40
2019-02-28T16:43:17.425Z,3.40
2019-02-28T16:45:49.429Z,3.40
2019-02-28T16:48:19.759Z,3.30
2019-02-28T16:50:50.742Z,3.20
2019-02-28T16:53:23.739Z,3.20
2019-02-28T16:55:54.045Z,3.10
2019-02-28T16:58:24.313Z,3.10
2019-02-28T17:00:54.611Z,3.00
2019-02-28T17:03:25.049Z,2.90
2019-02-28T17:05:58.495Z,2.90
2019-02-28T17:08:29.205Z,2.80
2019-02-28T17:10:59.525Z,2.80
2019-02-28T17:13:38.836Z,2.80
2019-02-28T17:16:16.608Z,2.70
2019-02-28T17:18:46.941Z,2.70
2019-02-28T17:21:18.167Z,2.70
2019-02-28T17:23:48.455Z,2.70
2019-02-28T17:26:20.369Z,2.70
2019-02-28T17:28:52.393Z,2.60
2019-02-28T17:31:26.779Z,2.60
2019-02-28T17:33:57.125Z,2.50
2019-02-28T17:36:27.579Z,2.50
2019-02-28T17:38:58.710Z,2.40
2019-02-28T17:41:29.125Z,2.40
2019-02-28T17:44:26.232Z,2.50
2019-02-28T17:47:15.893Z,2.40
2019-02-28T17:50:10.058Z,2.30
2019-02-28T17:52:52.240Z,2.30
2019-02-28T17:55:34.709Z,2.20
2019-02-28T17:58:10.797Z,2.20
2019-02-28T18:00:51.862Z,2.20
2019-02-28T18:03:28.498Z,2.20
2019-02-28T18:06:29.430Z,2.10
2019-02-28T18:09:09.583Z,2.10
2019-02-28T18:11:55.074Z,2.00
2019-02-28T18:14:45.086Z,2.00
2019-02-28T18:17:37.868Z,2.00
2019-02-28T18:20:32.301Z,2.00
2019-02-28T18:23:14.364Z,1.90
2019-02-28T18:26:02.493Z,1.90
2019-02-28T18:28:46.569Z,1.90
2019-02-28T18:31:19.288Z,1.90
2019-02-28T18:33:52.339Z,1.80
2019-02-28T18:36:25.313Z,1.80
2019-02-28T18:38:55.656Z,1.80
2019-02-28T18:41:25.953Z,1.80
2019-02-28T18:43:56.384Z,1.70
2019-02-28T18:46:29.523Z,1.60
2019-02-28T18:48:58.660Z,1.70
2019-02-28T18:51:29.273Z,1.60
2019-02-28T18:53:59.836Z,1.50
2019-02-28T18:56:30.291Z,1.50
2019-02-28T18:59:00.722Z,1.50
2019-02-28T19:01:30.941Z,1.50
2019-02-28T19:04:01.392Z,1.40
2019-02-28T19:06:31.850Z,1.40
2019-02-28T19:09:02.245Z,1.40
2019-02-28T19:11:32.537Z,1.30
2019-02-28T19:14:03.036Z,1.30
2019-02-28T19:16:33.969Z,1.30
2019-02-28T19:19:04.408Z,1.30
2019-02-28T19:21:34.692Z,1.20
2019-02-28T19:24:05.037Z,1.20
2019-02-28T19:26:35.406Z,1.10
2019-02-28T19:29:05.867Z,1.10
2019-02-28T19:31:36.153Z,1.10
2019-02-28T19:34:06.839Z,1.00
2019-02-28T19:36:37.281Z,1.00
2019-02-28T19:39:07.834Z,1.00
2019-02-28T19:41:38.127Z,0.90
2019-02-28T19:44:08.517Z,0.90
2019-02-28T19:46:38.823Z,0.90
2019-02-28T19:49:09.180Z,0.80
2019-02-28T19:51:40.351Z,0.90
2019-02-28T19:54:10.982Z,0.90
2019-02-28T19:56:41.425Z,0.80
2019-02-28T19:59:10.994Z,0.80
2019-02-28T20:01:41.365Z,0.80
2019-02-28T20:04:11.721Z,0.80
2019-02-28T20:06:42.177Z,0.80
2019-02-28T20:09:12.685Z,0.80
2019-02-28T20:11:43.201Z,0.80
2019-02-28T20:14:13.601Z,0.80
2019-02-28T20:16:44.257Z,0.80
2019-02-28T20:19:14.609Z,0.80
2019-02-28T20:21:45.251Z,0.80
2019-02-28T20:24:15.525Z,0.80
2019-02-28T20:26:45.877Z,0.80
2019-02-28T20:29:16.240Z,0.80
2019-02-28T20:31:46.609Z,0.80
2019-02-28T20:34:17.125Z,0.70
2019-02-28T20:36:47.753Z,0.70
2019-02-28T20:39:18.108Z,0.70
2019-02-28T20:41:48.246Z,0.70
2019-02-28T20:44:18.913Z,0.70
2019-02-28T20:46:49.360Z,0.70
2019-02-28T20:49:19.800Z,0.70
2019-02-28T20:51:55.275Z,0.70
2019-02-28T20:54:22.092Z,0.70
2019-02-28T20:56:52.745Z,0.70
2019-02-28T20:59:23.142Z,0.70
2019-02-28T21:01:53.367Z,0.70
2019-02-28T21:04:23.644Z,0.60
2019-02-28T21:06:54.117Z,0.70
2019-02-28T21:09:24.823Z,0.60
2019-02-28T21:11:55.320Z,0.60
2019-02-28T21:14:25.665Z,0.60
2019-02-28T21:16:55.953Z,0.60
2019-02-28T21:19:26.225Z,0.50
2019-02-28T21:21:56.553Z,0.60
2019-02-28T21:24:27.047Z,0.60
2019-02-28T21:26:57.399Z,0.50
2019-02-28T21:29:27.860Z,0.60
2019-02-28T21:31:58.161Z,0.50
2019-02-28T21:34:28.453Z,0.50
2019-02-28T21:36:58.722Z,0.50
2019-02-28T21:39:29.185Z,0.50
2019-02-28T21:41:59.589Z,0.40
2019-02-28T21:44:29.979Z,0.40
2019-02-28T21:47:00.261Z,0.40
2019-02-28T21:49:30.639Z,0.40
2019-02-28T21:52:01.157Z,0.40
2019-02-28T21:54:31.481Z,0.40
2019-02-28T21:57:01.776Z,0.40
2019-02-28T21:59:32.079Z,0.40
2019-02-28T22:02:02.609Z,0.40
2019-02-28T22:04:32.967Z,0.40
2019-02-28T22:07:03.324Z,0.40
2019-02-28T22:09:33.541Z,0.40
2019-02-28T22:12:03.890Z,0.40
2019-02-28T22:14:34.373Z,0.40
2019-02-28T22:17:04.736Z,0.40
2019-02-28T22:19:35.023Z,0.40
2019-02-28T22:22:05.429Z,0.30
2019-02-28T22:24:35.799Z,0.40
2019-02-28T22:27:06.399Z,0.40
2019-02-28T22:29:36.764Z,0.30
2019-02-28T22:32:11.423Z,0.30
2019-02-28T22:34:43.440Z,0.30
2019-02-28T22:37:13.869Z,0.40
2019-02-28T22:39:44.247Z,0.40
2019-02-28T22:42:22.080Z,0.40
2019-02-28T22:44:46.516Z,0.40
2019-02-28T22:47:16.677Z,0.40
2019-02-28T22:49:46.805Z,0.30
2019-02-28T22:52:17.259Z,0.30
2019-02-28T22:54:47.534Z,0.30
2019-02-28T22:57:17.748Z,0.30
2019-02-28T22:59:47.877Z,0.30
2019-02-28T23:02:18.579Z,0.30
2019-02-28T23:04:48.992Z,0.30
2019-02-28T23:07:19.205Z,0.30
2019-02-28T23:09:49.545Z,0.30
2019-02-28T23:12:19.756Z,0.30
2019-02-28T23:14:50.129Z,0.30
2019-02-28T23:17:20.494Z,0.30
2019-02-28T23:19:50.950Z,0.30
2019-02-28T23:22:21.469Z,0.30
2019-02-28T23:24:51.745Z,0.20
2019-02-28T23:27:22.121Z,0.20
2019-02-28T23:29:58.202Z,0.20
2019-02-28T23:32:34.261Z,0.20
2019-02-28T23:35:07.725Z,0.20
2019-02-28T23:37:38.178Z,0.10
2019-02-28T23:40:08.835Z,0.10
2019-02-28T23:42:39.202Z,0.10
2019-02-28T23:45:09.544Z,0.10
2019-02-28T23:47:39.962Z,0.10
2019-02-28T23:50:10.475Z,0.10
2019-02-28T23:52:40.833Z,0.10
2019-02-28T23:55:11.248Z,0.20
2019-02-28T23:57:41.602Z,0.20
